Queen Of Nanaimo — VCNX — position and weather

sailwx.info

Track history (hours):
 
Tides and Currents Weather Stations Pressure Air Temp Water Temp Dewpoint Dewpoint Depression Visibility Wind Speed Wind Dir Waves Ship Positions

Queen Of Nanaimo

Last reported at 2016-Aug-28 20:33 UTC. Time now 2016-Aug-28 20:37 UTC.
Position N 49°00' W 123°08'.

Length 130 m; draft 4 m.

Type: Passenger vessel. MMSI: 316001254.

Date/timePositionNaut miles runAvg speedWind from/ knotsBaromVisibWave heightAir tempDewpointWater temp
2016-Aug-28 20:33N 49°00' W 123°08'1110.7
2016-Aug-28 19:33N 48°53' W 123°19'2 1.8
2016-Aug-28 18:28N 48°51' W 123°20'2 2.1
2016-Aug-28 17:34N 48°53' W 123°19'1110.6
2016-Aug-28 16:33N 49°00' W 123°08'6 6.4
2016-Aug-28 15:34N 48°55' W 123°14'8 7.4
2016-Aug-28 14:33N 48°51' W 123°23'1 0.1
2016-Aug-28 05:33N 48°51' W 123°22'1313.0
2016-Aug-28 04:34N 49°00' W 123°08'0 0.3
2016-Aug-28 03:33N 49°00' W 123°08'0 0.0
2016-Aug-28 02:33N 49°00' W 123°08'0 0.0
2016-Aug-28 01:33N 49°00' W 123°08'1111.3
2016-Aug-28 00:33N 48°52' W 123°19'4 4.0
2016-Aug-27 23:33N 48°51' W 123°25'4 1.3
2016-Aug-27 20:34N 48°52' W 123°19'1111.4
2016-Aug-27 19:33N 49°00' W 123°08'6 6.4
2016-Aug-27 18:33N 48°55' W 123°14'6 5.9
2016-Aug-27 17:33N 48°51' W 123°20'2 1.9
2016-Aug-27 16:33N 48°53' W 123°19'1110.6
2016-Aug-27 15:33N 49°00' W 123°08'2 1.8
2016-Aug-27 14:33N 48°59' W 123°09'1313.1
2016-Aug-27 13:33N 48°51' W 123°25'1 0.6
2016-Aug-27 11:13N 48°51' W 123°27'0 0.0
2016-Aug-27 08:17N 48°51' W 123°27'0 0.0
2016-Aug-27 06:24N 48°51' W 123°27'5 2.9
2016-Aug-27 04:33N 48°52' W 123°19'1111.2
2016-Aug-27 03:33N 49°00' W 123°08'7 6.8
2016-Aug-27 02:33N 48°55' W 123°14'6 5.3
2016-Aug-27 01:30N 48°51' W 123°20'4 3.9
2016-Aug-27 00:34N 48°54' W 123°17'9 8.8
2016-Aug-26 23:33N 49°00' W 123°08'1 0.7
2016-Aug-26 22:33N 48°60' W 123°08'1313.5
2016-Aug-26 21:33N 48°51' W 123°24'1 1.3
2016-Aug-26 20:29N 48°51' W 123°26'5 5.2
2016-Aug-26 19:34N 48°48' W 123°20'4 4.2
2016-Aug-26 18:29N 48°53' W 123°19'1011.1
2016-Aug-26 17:33N 49°00' W 123°08'0 0.4
2016-Aug-26 16:33N 49°00' W 123°08'1110.7
2016-Aug-26 15:34N 48°53' W 123°19'2 1.9
2016-Aug-26 14:31N 48°51' W 123°20'4 4.2
2016-Aug-26 13:32N 48°51' W 123°26'1 0.2
2016-Aug-26 10:27N 48°51' W 123°27'4 0.7
2016-Aug-26 04:31N 48°52' W 123°21'6 6.0
2016-Aug-26 03:33N 48°56' W 123°15'6 6.4
2016-Aug-26 02:33N 49°00' W 123°08'5 5.0
2016-Aug-26 01:33N 48°56' W 123°12'7 7.3
2016-Aug-26 00:33N 48°52' W 123°21'4 3.9
2016-Aug-25 23:33N 48°48' W 123°19'6 5.9
2016-Aug-25 22:33N 48°51' W 123°26'0 0.1
2016-Aug-25 20:29N 48°51' W 123°27'5 5.7
2016-Aug-25 19:33N 48°48' W 123°20'5 4.6
2016-Aug-25 18:33N 48°53' W 123°19'1010.0
2016-Aug-25 17:33N 48°60' W 123°08'1 0.6
2016-Aug-25 16:34N 49°00' W 123°08'11 8.9
2016-Aug-25 15:21N 48°53' W 123°19'2 2.3
2016-Aug-25 14:31N 48°51' W 123°20'3 3.5
2016-Aug-25 13:33N 48°49' W 123°24'2 0.4
2016-Aug-25 07:14N 48°51' W 123°27'6 7.3
2016-Aug-25 06:24N 48°48' W 123°19'13 7.1
2016-Aug-25 04:33N 48°59' W 123°09'1 1.4
2016-Aug-25 03:33N 49°00' W 123°08'3 2.9
2016-Aug-25 02:34N 48°58' W 123°10'8 7.7
2016-Aug-25 01:32N 48°53' W 123°19'2 1.8
2016-Aug-25 00:26N 48°51' W 123°20'3 2.8
2016-Aug-24 23:28N 48°48' W 123°19'6 6.4
2016-Aug-24 22:33N 48°51' W 123°27'1 0.3
2016-Aug-24 20:29N 48°51' W 123°26'4 3.9
2016-Aug-24 19:30N 48°51' W 123°20'2 1.9
2016-Aug-24 18:27N 48°53' W 123°19'1111.9
2016-Aug-24 17:34N 49°00' W 123°08'0 0.0
2016-Aug-24 16:33N 49°00' W 123°08'11 9.9
2016-Aug-24 15:28N 48°53' W 123°19'2 0.2
2016-Aug-24 04:33N 48°51' W 123°20'2 1.9
2016-Aug-24 03:30N 48°53' W 123°19'1111.3
2016-Aug-24 02:33N 49°00' W 123°08'6 5.9
2016-Aug-24 01:33N 48°56' W 123°13'7 6.7
2016-Aug-24 00:33N 48°51' W 123°20'3 2.6
2016-Aug-23 23:28N 48°48' W 123°20'5 5.5
2016-Aug-23 22:30N 48°51' W 123°27'0 0.0
2016-Aug-23 21:30N 48°51' W 123°27'5 5.6
2016-Aug-23 20:32N 48°48' W 123°20'3 3.0
2016-Aug-23 19:33N 48°51' W 123°20'3 2.9
2016-Aug-23 18:34N 48°53' W 123°18'10 9.6
2016-Aug-23 17:33N 49°00' W 123°08'0 0.0
2016-Aug-23 16:33N 49°00' W 123°08'1110.7
2016-Aug-23 15:33N 48°53' W 123°19'2 2.0
2016-Aug-23 14:33N 48°51' W 123°21'3 3.0
2016-Aug-23 13:33N 48°49' W 123°24'2 1.7
2016-Aug-23 12:07N 48°51' W 123°27'0 0.0
2016-Aug-23 11:16N 48°51' W 123°27'0 0.0
2016-Aug-23 10:19N 48°51' W 123°27'0 0.0
2016-Aug-23 09:31N 48°51' W 123°27'0 0.0
2016-Aug-23 08:31N 48°51' W 123°27'0 0.0
2016-Aug-23 06:05N 48°51' W 123°27'1 1.3
2016-Aug-23 05:33N 48°51' W 123°26'4 3.9
2016-Aug-23 04:33N 48°51' W 123°20'2 2.0
2016-Aug-23 03:33N 48°53' W 123°19'1110.7
2016-Aug-23 02:33N 49°00' W 123°08'7 7.1
2016-Aug-23 01:34N 48°55' W 123°15'5 5.3
2016-Aug-23 00:33N 48°51' W 123°20'3 2.7
2016-Aug-22 23:33N 48°48' W 123°19'5 5.1
2016-Aug-22 22:33N 48°51' W 123°26'2 0.9
2016-Aug-22 20:33N 48°49' W 123°24'4 3.5
2016-Aug-22 19:33N 48°51' W 123°20'2 2.0
2016-Aug-22 18:33N 48°53' W 123°19'1110.7
2016-Aug-22 17:33N 49°00' W 123°08'0 0.0
2016-Aug-22 16:33N 49°00' W 123°08'1110.2
2016-Aug-22 15:30N 48°53' W 123°19'2 2.1
2016-Aug-22 14:34N 48°51' W 123°20'3 3.1
2016-Aug-22 13:34N 48°49' W 123°24'2 2.4
2016-Aug-22 12:33N 48°51' W 123°27'0 0.0
2016-Aug-22 11:33N 48°51' W 123°27'0 0.0
2016-Aug-22 10:21N 48°51' W 123°27'0 0.0
2016-Aug-22 07:19N 48°51' W 123°27'810.9
2016-Aug-22 06:33N 48°55' W 123°16'7 7.5
2016-Aug-22 05:33N 49°00' W 123°08'1110.7
2016-Aug-22 04:33N 48°53' W 123°19'2 1.8
2016-Aug-22 03:29N 48°51' W 123°20'1111.6
2016-Aug-22 02:34N 48°59' W 123°09'1 0.5
2016-Aug-22 01:33N 48°59' W 123°09'10 9.5
2016-Aug-22 00:33N 48°53' W 123°19'5 3.8
2016-Aug-21 23:09N 48°51' W 123°27'5 6.9
2016-Aug-21 22:28N 48°52' W 123°20'1212.9
2016-Aug-21 21:33N 49°00' W 123°08'5 4.9
2016-Aug-21 20:33N 48°56' W 123°12'7 7.2
2016-Aug-21 19:33N 48°52' W 123°20'1 0.9
2016-Aug-21 18:29N 48°51' W 123°20'6 6.3
2016-Aug-21 17:33N 48°55' W 123°14'7 6.6
2016-Aug-21 16:33N 49°00' W 123°08'7 7.2
2016-Aug-21 15:33N 48°55' W 123°14'7 7.2
2016-Aug-21 14:33N 48°51' W 123°24'2 0.4
2016-Aug-21 10:16N 48°51' W 123°27'0 0.0
2016-Aug-21 08:07N 48°51' W 123°27'0 0.0
2016-Aug-21 07:30N 48°51' W 123°27'1 0.7
2016-Aug-21 05:34N 48°50' W 123°25'1414.3
2016-Aug-21 04:34N 48°60' W 123°09'1 0.9
2016-Aug-21 03:33N 49°00' W 123°08'0 0.0
2016-Aug-21 02:34N 49°00' W 123°08'0 0.0
2016-Aug-21 01:33N 49°00' W 123°08'1111.2
2016-Aug-21 00:34N 48°52' W 123°18'5 4.7
2016-Aug-20 23:26N 48°51' W 123°26'0 0.3
2016-Aug-20 22:32N 48°51' W 123°27'0 0.0
2016-Aug-20 21:32N 48°51' W 123°27'8 7.8
2016-Aug-20 20:34N 48°55' W 123°16'8 8.0
2016-Aug-20 19:33N 49°00' W 123°08'8 7.8
2016-Aug-20 18:33N 48°54' W 123°15'5 4.0
2016-Aug-20 17:21N 48°51' W 123°20'3 3.3
2016-Aug-20 16:34N 48°53' W 123°18'10 9.9
2016-Aug-20 15:33N 49°00' W 123°08'2 2.3
2016-Aug-20 14:34N 48°58' W 123°09'1312.9
2016-Aug-20 13:33N 48°50' W 123°25'1 0.1
2016-Aug-20 06:12N 48°51' W 123°26'6 7.9
2016-Aug-20 05:30N 48°48' W 123°19'4 3.8
2016-Aug-20 04:33N 48°52' W 123°19'1111.5
2016-Aug-20 03:33N 49°00' W 123°08'5 4.8
2016-Aug-20 02:34N 48°56' W 123°12'8 5.8
2016-Aug-20 01:12N 48°51' W 123°21'2 3.1
2016-Aug-20 00:33N 48°53' W 123°19'1110.6
2016-Aug-19 23:33N 49°00' W 123°08'0 0.3
2016-Aug-19 22:33N 49°00' W 123°08'1414.3
2016-Aug-19 21:34N 48°51' W 123°25'1 1.3
2016-Aug-19 20:30N 48°51' W 123°27'5 5.6
2016-Aug-19 19:33N 48°48' W 123°20'4 4.4
2016-Aug-19 18:33N 48°53' W 123°19'1110.7
2016-Aug-19 17:33N 49°00' W 123°08'0 0.0
2016-Aug-19 16:33N 49°00' W 123°08'1110.7
2016-Aug-19 15:33N 48°53' W 123°19'2 1.8
2016-Aug-19 14:30N 48°51' W 123°20'3 3.4
2016-Aug-19 13:33N 48°49' W 123°23'3 0.3
2016-Aug-19 05:33N 48°48' W 123°19'3 2.9
2016-Aug-19 04:33N 48°51' W 123°20'4 4.2
2016-Aug-19 03:34N 48°54' W 123°17'8 8.4
2016-Aug-19 02:33N 49°00' W 123°08'3 3.3
2016-Aug-19 01:33N 48°58' W 123°10'7 7.4
2016-Aug-19 00:33N 48°53' W 123°19'5 4.5
2016-Aug-18 23:33N 48°48' W 123°19'6 5.8
2016-Aug-18 22:32N 48°51' W 123°27'0 0.1
2016-Aug-18 21:13N 48°51' W 123°27'1 1.7
2016-Aug-18 20:34N 48°51' W 123°25'  
Track history (hours):
 
Tides and Currents Weather Stations Pressure Air Temp Water Temp Dewpoint Dewpoint Depression Visibility Wind Speed Wind Dir Waves Ship Positions

Queen Of Nanaimo

Last reported at 2016-Aug-28 20:33 UTC. Time now 2016-Aug-28 20:37 UTC.
Position N 49°00' W 123°08'.

Length 130 m; draft 4 m.

Type: Passenger vessel. MMSI: 316001254.

Date/timePositionNaut miles runAvg speedWind from/ knotsBaromVisibWave heightAir tempDewpointWater temp
2016-Aug-28 20:33N 49°00' W 123°08'1110.7
2016-Aug-28 19:33N 48°53' W 123°19'2 1.8
2016-Aug-28 18:28N 48°51' W 123°20'2 2.1
2016-Aug-28 17:34N 48°53' W 123°19'1110.6
2016-Aug-28 16:33N 49°00' W 123°08'6 6.4
2016-Aug-28 15:34N 48°55' W 123°14'8 7.4
2016-Aug-28 14:33N 48°51' W 123°23'1 0.1
2016-Aug-28 05:33N 48°51' W 123°22'1313.0
2016-Aug-28 04:34N 49°00' W 123°08'0 0.3
2016-Aug-28 03:33N 49°00' W 123°08'0 0.0
2016-Aug-28 02:33N 49°00' W 123°08'0 0.0
2016-Aug-28 01:33N 49°00' W 123°08'1111.3
2016-Aug-28 00:33N 48°52' W 123°19'4 4.0
2016-Aug-27 23:33N 48°51' W 123°25'4 1.3
2016-Aug-27 20:34N 48°52' W 123°19'1111.4
2016-Aug-27 19:33N 49°00' W 123°08'6 6.4
2016-Aug-27 18:33N 48°55' W 123°14'6 5.9
2016-Aug-27 17:33N 48°51' W 123°20'2 1.9
2016-Aug-27 16:33N 48°53' W 123°19'1110.6
2016-Aug-27 15:33N 49°00' W 123°08'2 1.8
2016-Aug-27 14:33N 48°59' W 123°09'1313.1
2016-Aug-27 13:33N 48°51' W 123°25'1 0.6
2016-Aug-27 11:13N 48°51' W 123°27'0 0.0
2016-Aug-27 08:17N 48°51' W 123°27'0 0.0
2016-Aug-27 06:24N 48°51' W 123°27'5 2.9
2016-Aug-27 04:33N 48°52' W 123°19'1111.2
2016-Aug-27 03:33N 49°00' W 123°08'7 6.8
2016-Aug-27 02:33N 48°55' W 123°14'6 5.3
2016-Aug-27 01:30N 48°51' W 123°20'4 3.9
2016-Aug-27 00:34N 48°54' W 123°17'9 8.8
2016-Aug-26 23:33N 49°00' W 123°08'1 0.7
2016-Aug-26 22:33N 48°60' W 123°08'1313.5
2016-Aug-26 21:33N 48°51' W 123°24'1 1.3
2016-Aug-26 20:29N 48°51' W 123°26'5 5.2
2016-Aug-26 19:34N 48°48' W 123°20'4 4.2
2016-Aug-26 18:29N 48°53' W 123°19'1011.1
2016-Aug-26 17:33N 49°00' W 123°08'0 0.4
2016-Aug-26 16:33N 49°00' W 123°08'1110.7
2016-Aug-26 15:34N 48°53' W 123°19'2 1.9
2016-Aug-26 14:31N 48°51' W 123°20'4 4.2
2016-Aug-26 13:32N 48°51' W 123°26'1 0.2
2016-Aug-26 10:27N 48°51' W 123°27'4 0.7
2016-Aug-26 04:31N 48°52' W 123°21'6 6.0
2016-Aug-26 03:33N 48°56' W 123°15'6 6.4
2016-Aug-26 02:33N 49°00' W 123°08'5 5.0
2016-Aug-26 01:33N 48°56' W 123°12'7 7.3
2016-Aug-26 00:33N 48°52' W 123°21'4 3.9
2016-Aug-25 23:33N 48°48' W 123°19'6 5.9
2016-Aug-25 22:33N 48°51' W 123°26'0 0.1
2016-Aug-25 20:29N 48°51' W 123°27'5 5.7
2016-Aug-25 19:33N 48°48' W 123°20'5 4.6
2016-Aug-25 18:33N 48°53' W 123°19'1010.0
2016-Aug-25 17:33N 48°60' W 123°08'1 0.6
2016-Aug-25 16:34N 49°00' W 123°08'11 8.9
2016-Aug-25 15:21N 48°53' W 123°19'2 2.3
2016-Aug-25 14:31N 48°51' W 123°20'3 3.5
2016-Aug-25 13:33N 48°49' W 123°24'2 0.4
2016-Aug-25 07:14N 48°51' W 123°27'6 7.3
2016-Aug-25 06:24N 48°48' W 123°19'13 7.1
2016-Aug-25 04:33N 48°59' W 123°09'1 1.4
2016-Aug-25 03:33N 49°00' W 123°08'3 2.9
2016-Aug-25 02:34N 48°58' W 123°10'8 7.7
2016-Aug-25 01:32N 48°53' W 123°19'2 1.8
2016-Aug-25 00:26N 48°51' W 123°20'3 2.8
2016-Aug-24 23:28N 48°48' W 123°19'6 6.4
2016-Aug-24 22:33N 48°51' W 123°27'1 0.3
2016-Aug-24 20:29N 48°51' W 123°26'4 3.9
2016-Aug-24 19:30N 48°51' W 123°20'2 1.9
2016-Aug-24 18:27N 48°53' W 123°19'1111.9
2016-Aug-24 17:34N 49°00' W 123°08'0 0.0
2016-Aug-24 16:33N 49°00' W 123°08'11 9.9
2016-Aug-24 15:28N 48°53' W 123°19'2 0.2
2016-Aug-24 04:33N 48°51' W 123°20'2 1.9
2016-Aug-24 03:30N 48°53' W 123°19'1111.3
2016-Aug-24 02:33N 49°00' W 123°08'6 5.9
2016-Aug-24 01:33N 48°56' W 123°13'7 6.7
2016-Aug-24 00:33N 48°51' W 123°20'3 2.6
2016-Aug-23 23:28N 48°48' W 123°20'5 5.5
2016-Aug-23 22:30N 48°51' W 123°27'0 0.0
2016-Aug-23 21:30N 48°51' W 123°27'5 5.6
2016-Aug-23 20:32N 48°48' W 123°20'3 3.0
2016-Aug-23 19:33N 48°51' W 123°20'3 2.9
2016-Aug-23 18:34N 48°53' W 123°18'10 9.6
2016-Aug-23 17:33N 49°00' W 123°08'0 0.0
2016-Aug-23 16:33N 49°00' W 123°08'1110.7
2016-Aug-23 15:33N 48°53' W 123°19'2 2.0
2016-Aug-23 14:33N 48°51' W 123°21'3 3.0
2016-Aug-23 13:33N 48°49' W 123°24'2 1.7
2016-Aug-23 12:07N 48°51' W 123°27'0 0.0
2016-Aug-23 11:16N 48°51' W 123°27'0 0.0
2016-Aug-23 10:19N 48°51' W 123°27'0 0.0
2016-Aug-23 09:31N 48°51' W 123°27'0 0.0
2016-Aug-23 08:31N 48°51' W 123°27'0 0.0
2016-Aug-23 06:05N 48°51' W 123°27'1 1.3
2016-Aug-23 05:33N 48°51' W 123°26'4 3.9
2016-Aug-23 04:33N 48°51' W 123°20'2 2.0
2016-Aug-23 03:33N 48°53' W 123°19'1110.7
2016-Aug-23 02:33N 49°00' W 123°08'7 7.1
2016-Aug-23 01:34N 48°55' W 123°15'5 5.3
2016-Aug-23 00:33N 48°51' W 123°20'3 2.7
2016-Aug-22 23:33N 48°48' W 123°19'5 5.1
2016-Aug-22 22:33N 48°51' W 123°26'2 0.9
2016-Aug-22 20:33N 48°49' W 123°24'4 3.5
2016-Aug-22 19:33N 48°51' W 123°20'2 2.0
2016-Aug-22 18:33N 48°53' W 123°19'1110.7
2016-Aug-22 17:33N 49°00' W 123°08'0 0.0
2016-Aug-22 16:33N 49°00' W 123°08'1110.2
2016-Aug-22 15:30N 48°53' W 123°19'2 2.1
2016-Aug-22 14:34N 48°51' W 123°20'3 3.1
2016-Aug-22 13:34N 48°49' W 123°24'2 2.4
2016-Aug-22 12:33N 48°51' W 123°27'0 0.0
2016-Aug-22 11:33N 48°51' W 123°27'0 0.0
2016-Aug-22 10:21N 48°51' W 123°27'0 0.0
2016-Aug-22 07:19N 48°51' W 123°27'810.9
2016-Aug-22 06:33N 48°55' W 123°16'7 7.5
2016-Aug-22 05:33N 49°00' W 123°08'1110.7
2016-Aug-22 04:33N 48°53' W 123°19'2 1.8
2016-Aug-22 03:29N 48°51' W 123°20'1111.6
2016-Aug-22 02:34N 48°59' W 123°09'1 0.5
2016-Aug-22 01:33N 48°59' W 123°09'10 9.5
2016-Aug-22 00:33N 48°53' W 123°19'5 3.8
2016-Aug-21 23:09N 48°51' W 123°27'5 6.9
2016-Aug-21 22:28N 48°52' W 123°20'1212.9
2016-Aug-21 21:33N 49°00' W 123°08'5 4.9
2016-Aug-21 20:33N 48°56' W 123°12'7 7.2
2016-Aug-21 19:33N 48°52' W 123°20'1 0.9
2016-Aug-21 18:29N 48°51' W 123°20'6 6.3
2016-Aug-21 17:33N 48°55' W 123°14'7 6.6
2016-Aug-21 16:33N 49°00' W 123°08'7 7.2
2016-Aug-21 15:33N 48°55' W 123°14'7 7.2
2016-Aug-21 14:33N 48°51' W 123°24'2 0.4
2016-Aug-21 10:16N 48°51' W 123°27'0 0.0
2016-Aug-21 08:07N 48°51' W 123°27'0 0.0
2016-Aug-21 07:30N 48°51' W 123°27'1 0.7
2016-Aug-21 05:34N 48°50' W 123°25'1414.3
2016-Aug-21 04:34N 48°60' W 123°09'1 0.9
2016-Aug-21 03:33N 49°00' W 123°08'0 0.0
2016-Aug-21 02:34N 49°00' W 123°08'0 0.0
2016-Aug-21 01:33N 49°00' W 123°08'1111.2
2016-Aug-21 00:34N 48°52' W 123°18'5 4.7
2016-Aug-20 23:26N 48°51' W 123°26'0 0.3
2016-Aug-20 22:32N 48°51' W 123°27'0 0.0
2016-Aug-20 21:32N 48°51' W 123°27'8 7.8
2016-Aug-20 20:34N 48°55' W 123°16'8 8.0
2016-Aug-20 19:33N 49°00' W 123°08'8 7.8
2016-Aug-20 18:33N 48°54' W 123°15'5 4.0
2016-Aug-20 17:21N 48°51' W 123°20'3 3.3
2016-Aug-20 16:34N 48°53' W 123°18'10 9.9
2016-Aug-20 15:33N 49°00' W 123°08'2 2.3
2016-Aug-20 14:34N 48°58' W 123°09'1312.9
2016-Aug-20 13:33N 48°50' W 123°25'1 0.1
2016-Aug-20 06:12N 48°51' W 123°26'6 7.9
2016-Aug-20 05:30N 48°48' W 123°19'4 3.8
2016-Aug-20 04:33N 48°52' W 123°19'1111.5
2016-Aug-20 03:33N 49°00' W 123°08'5 4.8
2016-Aug-20 02:34N 48°56' W 123°12'8 5.8
2016-Aug-20 01:12N 48°51' W 123°21'2 3.1
2016-Aug-20 00:33N 48°53' W 123°19'1110.6
2016-Aug-19 23:33N 49°00' W 123°08'0 0.3
2016-Aug-19 22:33N 49°00' W 123°08'1414.3
2016-Aug-19 21:34N 48°51' W 123°25'1 1.3
2016-Aug-19 20:30N 48°51' W 123°27'5 5.6
2016-Aug-19 19:33N 48°48' W 123°20'4 4.4
2016-Aug-19 18:33N 48°53' W 123°19'1110.7
2016-Aug-19 17:33N 49°00' W 123°08'0 0.0
2016-Aug-19 16:33N 49°00' W 123°08'1110.7
2016-Aug-19 15:33N 48°53' W 123°19'2 1.8
2016-Aug-19 14:30N 48°51' W 123°20'3 3.4
2016-Aug-19 13:33N 48°49' W 123°23'3 0.3
2016-Aug-19 05:33N 48°48' W 123°19'3 2.9
2016-Aug-19 04:33N 48°51' W 123°20'4 4.2
2016-Aug-19 03:34N 48°54' W 123°17'8 8.4
2016-Aug-19 02:33N 49°00' W 123°08'3 3.3
2016-Aug-19 01:33N 48°58' W 123°10'7 7.4
2016-Aug-19 00:33N 48°53' W 123°19'5 4.5
2016-Aug-18 23:33N 48°48' W 123°19'6 5.8
2016-Aug-18 22:32N 48°51' W 123°27'0 0.1
2016-Aug-18 21:13N 48°51' W 123°27'1 1.7
2016-Aug-18 20:34N 48°51' W 123°25'  

Dump ship's entire track history